createdAt,value
2018-05-25T00:00:44.675Z,93.38
2018-05-25T00:03:12.155Z,93.61
2018-05-25T00:05:39.636Z,93.54
2018-05-25T00:08:07.088Z,93.02
2018-05-25T00:10:34.603Z,93.35
2018-05-25T00:13:02.067Z,92.81
2018-05-25T00:15:29.526Z,93.31
2018-05-25T00:17:57.003Z,93.38
2018-05-25T00:20:24.471Z,93.68
2018-05-25T00:22:51.949Z,95.10
2018-05-25T00:25:19.404Z,93.94
2018-05-25T00:27:46.896Z,93.38
2018-05-25T00:30:14.360Z,93.67
2018-05-25T00:32:41.823Z,93.43
2018-05-25T00:35:09.303Z,92.96
2018-05-25T00:37:36.772Z,92.34
2018-05-25T00:40:04.255Z,92.77
2018-05-25T00:42:31.739Z,92.39
2018-05-25T00:44:59.240Z,92.87
2018-05-25T00:47:26.704Z,93.33
2018-05-25T00:49:54.159Z,94.07
2018-05-25T00:52:21.648Z,94.54
2018-05-25T00:55:00.876Z,94.91
2018-05-25T00:57:28.355Z,95.27
2018-05-25T00:59:55.815Z,95.09
2018-05-25T01:02:23.315Z,94.00
2018-05-25T01:04:50.776Z,93.55
2018-05-25T01:07:18.239Z,93.58
2018-05-25T01:09:45.719Z,93.39
2018-05-25T01:12:13.167Z,94.03
2018-05-25T01:14:40.674Z,94.75
2018-05-25T01:17:08.123Z,94.81
2018-05-25T01:19:35.755Z,94.44
2018-05-25T01:22:03.208Z,93.76
2018-05-25T01:24:30.664Z,94.67
2018-05-25T01:26:58.140Z,95.07
2018-05-25T01:29:25.603Z,95.80
2018-05-25T01:31:53.079Z,96.84
2018-05-25T01:34:20.535Z,97.53
2018-05-25T01:36:48.044Z,98.76
2018-05-25T01:39:15.503Z,98.81
2018-05-25T01:41:42.960Z,99.27
2018-05-25T01:44:10.452Z,99.42
2018-05-25T01:46:37.924Z,99.25
2018-05-25T01:49:05.449Z,99.37
2018-05-25T01:51:32.905Z,99.34
2018-05-25T01:54:00.632Z,99.19
2018-05-25T01:56:28.112Z,97.73
2018-05-25T01:58:55.580Z,97.42
2018-05-25T02:01:23.061Z,98.20
2018-05-25T02:03:50.539Z,98.30
2018-05-25T02:06:18.012Z,98.67
2018-05-25T02:08:45.463Z,99.24
2018-05-25T02:11:13.248Z,99.30
2018-05-25T02:13:40.705Z,99.61
2018-05-25T02:16:08.159Z,99.94
2018-05-25T02:18:35.632Z,99.68
2018-05-25T02:21:03.092Z,99.77
2018-05-25T02:23:30.600Z,99.16
2018-05-25T02:25:58.059Z,99.63
2018-05-25T02:28:25.695Z,99.68
2018-05-25T02:30:53.162Z,99.86
2018-05-25T02:33:20.615Z,99.77
2018-05-25T02:35:48.115Z,99.39
2018-05-25T02:38:15.572Z,98.86
2018-05-25T02:40:43.056Z,98.65
2018-05-25T02:43:10.512Z,99.06
2018-05-25T02:45:38.042Z,100.00
2018-05-25T02:48:05.508Z,100.00
2018-05-25T02:50:32.968Z,99.94
2018-05-25T02:53:00.445Z,99.57
2018-05-25T02:55:27.915Z,99.50
2018-05-25T02:57:55.408Z,98.94
2018-05-25T03:00:22.898Z,99.16
2018-05-25T03:02:50.389Z,100.00
2018-05-25T03:05:17.873Z,100.00
2018-05-25T03:07:45.328Z,100.00
2018-05-25T03:10:12.947Z,99.89
2018-05-25T03:12:40.408Z,99.21
2018-05-25T03:15:07.872Z,98.70
2018-05-25T03:17:35.373Z,99.50
2018-05-25T03:20:02.837Z,99.80
2018-05-25T03:22:30.335Z,99.91
2018-05-25T03:24:57.804Z,99.50
2018-05-25T03:27:25.263Z,99.71
2018-05-25T03:29:52.743Z,99.91
2018-05-25T03:32:20.199Z,99.78
2018-05-25T03:34:47.695Z,100.00
2018-05-25T03:37:15.156Z,100.00
2018-05-25T03:39:42.643Z,100.00
2018-05-25T03:42:10.108Z,100.00
2018-05-25T03:44:37.592Z,100.00
2018-05-25T03:47:05.084Z,99.53
2018-05-25T03:49:32.539Z,100.00
2018-05-25T03:52:00.040Z,99.87
2018-05-25T03:54:27.521Z,99.47
2018-05-25T03:56:55.127Z,99.01
2018-05-25T04:02:22.960Z,98.34
2018-05-25T04:04:50.412Z,97.20
2018-05-25T04:07:17.884Z,97.39
2018-05-25T04:09:45.367Z,97.39
2018-05-25T04:12:12.824Z,97.10
2018-05-25T04:14:40.307Z,96.78
2018-05-25T04:17:07.772Z,97.48
2018-05-25T04:19:35.400Z,96.34
2018-05-25T04:22:02.872Z,95.80
2018-05-25T04:24:30.336Z,96.05
2018-05-25T04:26:57.860Z,96.39
2018-05-25T04:29:25.332Z,96.25
2018-05-25T04:31:52.860Z,95.57
2018-05-25T04:34:20.320Z,95.80
2018-05-25T04:36:48.051Z,95.71
2018-05-25T04:39:15.524Z,95.92
2018-05-25T04:41:43.002Z,95.91
2018-05-25T04:44:10.585Z,96.03
2018-05-25T04:46:38.047Z,96.99
2018-05-25T04:49:05.523Z,97.92
2018-05-25T04:51:32.988Z,97.43
2018-05-25T04:54:00.475Z,96.70
2018-05-25T04:56:27.955Z,96.32
2018-05-25T04:58:55.443Z,95.88
2018-05-25T05:01:22.915Z,96.49
2018-05-25T05:03:50.372Z,96.45
2018-05-25T05:06:17.849Z,96.01
2018-05-25T05:08:45.315Z,96.18
2018-05-25T05:11:13.212Z,97.95
2018-05-25T05:13:40.704Z,97.36
2018-05-25T05:16:08.176Z,97.75
2018-05-25T05:18:35.656Z,98.30
2018-05-25T05:21:03.123Z,98.75
2018-05-25T05:23:30.602Z,99.24
2018-05-25T05:25:58.061Z,99.39
2018-05-25T05:28:25.721Z,99.17
2018-05-25T05:30:53.178Z,98.89
2018-05-25T05:33:20.647Z,98.34
2018-05-25T05:35:48.139Z,97.81
2018-05-25T05:38:15.641Z,96.53
2018-05-25T05:40:43.127Z,94.40
2018-05-25T05:43:10.585Z,95.10
2018-05-25T05:45:38.081Z,95.23
2018-05-25T05:48:05.545Z,95.47
2018-05-25T05:50:33.071Z,95.18
2018-05-25T05:53:00.527Z,95.30
2018-05-25T05:55:27.996Z,94.66
2018-05-25T05:57:55.476Z,95.25
2018-05-25T06:00:22.931Z,94.90
2018-05-25T06:02:50.424Z,93.78
2018-05-25T06:05:17.879Z,94.66
2018-05-25T06:07:45.356Z,95.02
2018-05-25T06:10:12.839Z,94.46
2018-05-25T06:12:40.291Z,95.21
2018-05-25T06:15:07.774Z,95.05
2018-05-25T06:17:35.231Z,95.14
2018-05-25T06:20:02.800Z,95.91
2018-05-25T06:22:30.217Z,95.06
2018-05-25T06:24:57.696Z,95.24
2018-05-25T06:27:25.175Z,94.85
2018-05-25T06:29:52.632Z,94.59
2018-05-25T06:32:20.119Z,94.60
2018-05-25T06:34:47.632Z,95.22
2018-05-25T06:37:15.263Z,95.08
2018-05-25T06:39:42.727Z,94.24
2018-05-25T06:42:10.184Z,94.31
2018-05-25T06:44:37.672Z,94.27
2018-05-25T06:47:05.143Z,94.39
2018-05-25T06:49:32.622Z,93.99
2018-05-25T06:52:00.083Z,93.75
2018-05-25T06:54:27.851Z,93.66
2018-05-25T06:56:55.319Z,93.42
2018-05-25T06:59:22.793Z,93.93
2018-05-25T07:01:50.279Z,93.46
2018-05-25T07:04:17.740Z,94.17
2018-05-25T07:06:45.225Z,93.96
2018-05-25T07:09:12.683Z,94.24
2018-05-25T07:11:40.163Z,93.78
2018-05-25T07:14:07.665Z,93.75
2018-05-25T07:16:35.123Z,93.19
2018-05-25T07:19:02.628Z,93.97
2018-05-25T07:21:30.108Z,94.23
2018-05-25T07:23:57.585Z,93.46
2018-05-25T07:26:25.052Z,93.12
2018-05-25T07:28:52.539Z,92.28
2018-05-25T07:31:20.013Z,92.36
2018-05-25T07:33:47.488Z,92.25
2018-05-25T07:36:14.972Z,91.46
2018-05-25T07:38:42.443Z,91.76
2018-05-25T07:41:09.923Z,90.81
2018-05-25T07:43:37.383Z,90.47
2018-05-25T07:46:05.016Z,90.40
2018-05-25T07:48:32.463Z,90.23
2018-05-25T07:50:59.919Z,88.80
2018-05-25T07:53:27.398Z,88.76
2018-05-25T07:55:54.856Z,87.72
2018-05-25T07:58:22.365Z,85.51
2018-05-25T08:00:49.820Z,86.39
2018-05-25T08:03:17.516Z,84.66
2018-05-25T08:05:44.987Z,84.80
2018-05-25T08:08:12.448Z,84.63
2018-05-25T08:10:39.958Z,84.58
2018-05-25T08:13:07.419Z,85.75
2018-05-25T08:15:34.896Z,85.45
2018-05-25T08:18:02.380Z,85.12
2018-05-25T08:20:30.119Z,85.06
2018-05-25T08:22:57.580Z,85.06
2018-05-25T08:25:25.036Z,83.96
2018-05-25T08:27:52.518Z,84.08
2018-05-25T08:30:20.004Z,84.28
2018-05-25T08:32:47.475Z,82.29
2018-05-25T08:35:14.943Z,83.29
2018-05-25T08:37:42.622Z,83.72
2018-05-25T08:40:10.084Z,83.13
2018-05-25T08:42:37.547Z,83.59
2018-05-25T08:45:05.029Z,82.32
2018-05-25T08:47:32.483Z,83.10
2018-05-25T08:49:59.964Z,82.46
2018-05-25T08:52:27.474Z,82.36
2018-05-25T08:54:55.093Z,82.23
2018-05-25T08:57:22.547Z,82.22
2018-05-25T08:59:50.027Z,82.90
2018-05-25T09:02:17.528Z,85.78
2018-05-25T09:04:44.983Z,84.31
2018-05-25T09:07:12.479Z,83.83
2018-05-25T09:09:39.944Z,81.32
2018-05-25T09:12:07.452Z,80.43
2018-05-25T09:14:34.908Z,79.82
2018-05-25T09:17:02.361Z,78.86
2018-05-25T09:19:29.839Z,77.37
2018-05-25T09:21:57.361Z,76.93
2018-05-25T09:24:24.795Z,77.62
2018-05-25T09:26:52.252Z,77.03
2018-05-25T09:29:20.076Z,75.42
2018-05-25T09:31:47.531Z,74.89
2018-05-25T09:34:14.992Z,76.08
2018-05-25T09:36:42.471Z,75.56
2018-05-25T09:39:09.940Z,75.27
2018-05-25T09:41:37.415Z,73.75
2018-05-25T09:44:04.884Z,74.41
2018-05-25T09:46:32.383Z,74.62
2018-05-25T09:48:59.847Z,74.79
2018-05-25T09:51:27.320Z,75.24
2018-05-25T09:53:54.799Z,73.55
2018-05-25T09:56:22.267Z,73.24
2018-05-25T09:58:49.748Z,72.28
2018-05-25T10:01:17.236Z,73.14
2018-05-25T10:03:44.879Z,74.14
2018-05-25T10:06:12.355Z,72.94
2018-05-25T10:08:39.853Z,70.10
2018-05-25T10:11:07.313Z,69.84
2018-05-25T10:13:34.771Z,69.14
2018-05-25T10:16:02.258Z,68.69
2018-05-25T10:18:29.708Z,69.20
2018-05-25T10:20:57.193Z,70.00
2018-05-25T10:23:24.679Z,70.06
2018-05-25T10:25:52.157Z,70.54
2018-05-25T10:28:19.649Z,68.77
2018-05-25T10:30:47.153Z,68.19
2018-05-25T10:33:14.631Z,68.57
2018-05-25T10:35:42.084Z,65.04
2018-05-25T10:38:09.610Z,65.89
2018-05-25T10:40:37.115Z,64.89
2018-05-25T10:43:04.809Z,65.72
2018-05-25T10:45:32.311Z,64.83
2018-05-25T10:47:59.803Z,64.90
2018-05-25T10:50:27.260Z,64.20
2018-05-25T10:52:54.736Z,63.78
2018-05-25T10:55:22.187Z,66.25
2018-05-25T10:57:49.675Z,65.57
2018-05-25T11:00:17.128Z,64.54
2018-05-25T11:02:44.627Z,64.39
2018-05-25T11:05:12.107Z,65.59
2018-05-25T11:07:39.573Z,64.20
2018-05-25T11:10:07.365Z,63.91
2018-05-25T11:12:34.827Z,64.70
2018-05-25T11:15:02.299Z,62.99
2018-05-25T11:17:29.776Z,63.44
2018-05-25T11:19:57.251Z,63.73
2018-05-25T11:22:24.912Z,63.20
2018-05-25T11:24:52.394Z,63.26
2018-05-25T11:27:19.857Z,61.57
2018-05-25T11:29:47.355Z,62.31
2018-05-25T11:32:14.812Z,61.85
2018-05-25T11:34:42.486Z,62.21
2018-05-25T11:37:09.943Z,56.79
2018-05-25T11:39:37.472Z,56.42
2018-05-25T11:42:04.960Z,56.63
2018-05-25T11:44:32.407Z,55.55
2018-05-25T11:46:59.887Z,55.01
2018-05-25T11:49:27.336Z,55.69
2018-05-25T11:51:54.831Z,55.05
2018-05-25T11:54:22.290Z,56.21
2018-05-25T11:56:49.748Z,55.72
2018-05-25T11:59:17.228Z,56.46
2018-05-25T12:01:44.746Z,57.40
2018-05-25T12:04:12.183Z,56.08
2018-05-25T12:06:39.691Z,59.38
2018-05-25T12:09:07.179Z,59.34
2018-05-25T12:11:34.667Z,57.73
2018-05-25T12:14:02.129Z,58.22
2018-05-25T12:16:29.631Z,57.40
2018-05-25T12:18:57.089Z,56.02
2018-05-25T12:21:24.571Z,56.28
2018-05-25T12:23:52.033Z,55.25
2018-05-25T12:26:19.835Z,56.86
2018-05-25T12:28:47.292Z,55.57
2018-05-25T12:31:14.747Z,54.92
2018-05-25T12:33:42.224Z,54.13
2018-05-25T12:36:09.680Z,54.60
2018-05-25T12:38:37.171Z,55.11
2018-05-25T12:41:04.635Z,55.18
2018-05-25T12:43:32.548Z,54.03
2018-05-25T12:46:00.011Z,55.36
2018-05-25T12:48:27.483Z,56.22
2018-05-25T12:50:54.960Z,56.20
2018-05-25T12:53:22.419Z,56.45
2018-05-25T12:55:49.895Z,55.36
2018-05-25T12:58:17.352Z,53.99
2018-05-25T13:00:45.141Z,53.82
2018-05-25T13:03:12.603Z,54.99
2018-05-25T13:05:40.080Z,54.87
2018-05-25T13:08:07.561Z,54.06
2018-05-25T13:10:35.020Z,53.77
2018-05-25T13:13:02.496Z,54.41
2018-05-25T13:15:29.947Z,52.96
2018-05-25T13:17:57.443Z,53.21
2018-05-25T13:20:24.885Z,50.70
2018-05-25T13:22:52.335Z,52.64
2018-05-25T13:25:19.804Z,53.02
2018-05-25T13:27:47.262Z,51.80
2018-05-25T13:30:14.737Z,52.00
2018-05-25T13:32:42.195Z,52.80
2018-05-25T13:35:09.708Z,53.11
2018-05-25T13:37:37.160Z,51.80
2018-05-25T13:40:04.625Z,51.43
2018-05-25T13:42:32.118Z,52.05
2018-05-25T13:44:59.567Z,48.19
2018-05-25T13:47:27.039Z,46.74
2018-05-25T13:49:54.516Z,48.44
2018-05-25T13:52:22.031Z,51.59
2018-05-25T13:54:49.490Z,51.80
2018-05-25T13:57:16.955Z,51.89
2018-05-25T13:59:44.420Z,51.40
2018-05-25T14:02:11.892Z,51.24
2018-05-25T14:04:39.364Z,50.27
2018-05-25T14:07:06.864Z,50.80
2018-05-25T14:09:34.356Z,51.30
2018-05-25T14:12:01.807Z,50.15
2018-05-25T14:14:29.415Z,50.81
2018-05-25T14:16:56.875Z,48.50
2018-05-25T14:19:24.328Z,49.59
2018-05-25T14:21:51.804Z,49.77
2018-05-25T14:24:19.247Z,48.93
2018-05-25T14:26:46.728Z,48.58
2018-05-25T14:29:14.172Z,48.50
2018-05-25T14:31:41.617Z,48.88
2018-05-25T14:34:09.118Z,49.40
2018-05-25T14:36:36.593Z,49.90
2018-05-25T14:39:04.231Z,49.45
2018-05-25T14:41:31.752Z,49.31
2018-05-25T14:43:59.216Z,50.85
2018-05-25T14:46:26.692Z,49.47
2018-05-25T14:48:54.139Z,49.32
2018-05-25T14:51:21.608Z,49.57
2018-05-25T14:53:49.055Z,48.97
2018-05-25T14:56:16.730Z,47.42
2018-05-25T14:58:44.179Z,47.58
2018-05-25T15:01:11.652Z,48.99
2018-05-25T15:03:39.120Z,47.95
2018-05-25T15:06:06.610Z,47.28
2018-05-25T15:08:34.068Z,47.45
2018-05-25T15:11:01.526Z,48.01
2018-05-25T15:13:29.007Z,47.97
2018-05-25T15:15:56.472Z,49.00
2018-05-25T15:18:23.927Z,49.52
2018-05-25T15:20:51.400Z,48.62
2018-05-25T15:23:18.851Z,48.99
2018-05-25T15:25:46.335Z,49.64
2018-05-25T15:28:13.797Z,49.31
2018-05-25T15:30:41.756Z,50.24
2018-05-25T15:33:09.205Z,48.80
2018-05-25T15:35:36.653Z,48.56
2018-05-25T15:38:04.125Z,47.92
2018-05-25T15:40:31.572Z,48.00
2018-05-25T15:42:59.060Z,48.38
2018-05-25T15:45:26.503Z,48.68
2018-05-25T15:47:54.007Z,47.64
2018-05-25T15:50:21.460Z,47.65
2018-05-25T15:52:48.907Z,47.92
2018-05-25T15:55:16.410Z,49.23
2018-05-25T15:57:43.856Z,48.56
2018-05-25T16:00:11.371Z,48.63
2018-05-25T16:02:38.823Z,48.75
2018-05-25T16:05:06.312Z,47.94
2018-05-25T16:07:33.776Z,49.39
2018-05-25T16:10:01.224Z,50.21
2018-05-25T16:12:28.711Z,49.26
2018-05-25T16:14:56.185Z,50.09
2018-05-25T16:17:23.657Z,49.54
2018-05-25T16:19:51.163Z,47.86
2018-05-25T16:22:19.076Z,49.19
2018-05-25T16:24:46.542Z,47.93
2018-05-25T16:27:14.004Z,49.38
2018-05-25T16:29:41.477Z,49.24
2018-05-25T16:32:08.929Z,48.00
2018-05-25T16:34:36.404Z,47.42
2018-05-25T16:37:03.864Z,46.63
2018-05-25T16:39:31.364Z,46.75
2018-05-25T16:41:58.807Z,47.07
2018-05-25T16:44:26.256Z,47.56
2018-05-25T16:46:53.747Z,46.91
2018-05-25T16:49:21.207Z,46.63
2018-05-25T16:51:48.696Z,46.57
2018-05-25T16:54:16.152Z,47.54
2018-05-25T16:56:43.605Z,48.12
2018-05-25T16:59:11.142Z,47.53
2018-05-25T17:01:38.593Z,47.46
2018-05-25T17:04:06.369Z,47.50
2018-05-25T17:06:33.824Z,48.54
2018-05-25T17:09:01.280Z,48.60
2018-05-25T17:11:28.769Z,49.02
2018-05-25T17:13:56.219Z,49.02
2018-05-25T17:16:23.695Z,48.65
2018-05-25T17:18:51.163Z,49.66
2018-05-25T17:21:18.632Z,49.28
2018-05-25T17:23:46.092Z,49.89
2018-05-25T17:26:14.028Z,49.91
2018-05-25T17:28:41.477Z,50.43
2018-05-25T17:31:08.923Z,51.26
2018-05-25T17:33:36.395Z,51.63
2018-05-25T17:36:03.898Z,51.37
2018-05-25T17:38:31.336Z,50.64
2018-05-25T17:40:58.783Z,51.71
2018-05-25T17:43:26.396Z,51.99
2018-05-25T17:45:53.867Z,51.82
2018-05-25T17:48:21.315Z,52.12
2018-05-25T17:50:48.797Z,51.96
2018-05-25T17:53:16.247Z,52.54
2018-05-25T17:55:43.724Z,53.64
2018-05-25T17:58:11.187Z,53.98
2018-05-25T18:00:38.683Z,54.89
2018-05-25T18:03:06.136Z,55.56
2018-05-25T18:05:33.608Z,55.87
2018-05-25T18:08:01.081Z,55.44
2018-05-25T18:10:28.554Z,56.11
2018-05-25T18:12:56.032Z,56.55
2018-05-25T18:15:23.492Z,57.22
2018-05-25T18:17:51.135Z,58.68
2018-05-25T18:20:18.593Z,58.92
2018-05-25T18:22:46.044Z,59.62
2018-05-25T18:25:13.512Z,61.07
2018-05-25T18:27:40.963Z,61.68
2018-05-25T18:30:08.447Z,63.71
2018-05-25T18:32:35.960Z,65.44
2018-05-25T18:35:03.423Z,67.66
2018-05-25T18:37:30.871Z,67.56
2018-05-25T18:39:58.357Z,66.84
2018-05-25T18:42:25.844Z,66.41
2018-05-25T18:44:53.317Z,65.98
2018-05-25T18:47:20.790Z,66.68
2018-05-25T18:49:48.252Z,66.66
2018-05-25T18:52:15.752Z,66.87
2018-05-25T18:54:43.209Z,67.31
2018-05-25T18:57:10.675Z,69.13
2018-05-25T18:59:38.215Z,70.40
2018-05-25T19:02:05.660Z,71.31
2018-05-25T19:04:33.146Z,71.95
2018-05-25T19:07:00.637Z,71.56
2018-05-25T19:09:28.709Z,71.58
2018-05-25T19:11:56.178Z,72.38
2018-05-25T19:14:23.632Z,72.54
2018-05-25T19:16:51.113Z,72.55
2018-05-25T19:19:18.572Z,73.03
2018-05-25T19:21:46.061Z,74.39
2018-05-25T19:24:13.555Z,74.84
2018-05-25T19:26:41.073Z,74.93
2018-05-25T19:29:08.563Z,76.21
2018-05-25T19:31:36.028Z,76.26
2018-05-25T19:34:03.519Z,76.98
2018-05-25T19:36:31.128Z,77.42
2018-05-25T19:38:58.635Z,78.76
2018-05-25T19:41:26.163Z,78.21
2018-05-25T19:43:53.908Z,78.07
2018-05-25T19:46:21.373Z,78.72
2018-05-25T19:48:48.837Z,78.68
2018-05-25T19:51:16.346Z,78.37
2018-05-25T19:53:43.822Z,78.52
2018-05-25T19:56:11.325Z,78.61
2018-05-25T19:58:38.784Z,77.65
2018-05-25T20:01:06.548Z,76.99
2018-05-25T20:03:34.006Z,76.82
2018-05-25T20:06:01.513Z,76.39
2018-05-25T20:08:28.980Z,75.94
2018-05-25T20:10:56.451Z,75.94
2018-05-25T20:13:23.925Z,76.54
2018-05-25T20:15:51.392Z,76.37
2018-05-25T20:18:18.880Z,76.55
2018-05-25T20:20:46.373Z,76.40
2018-05-25T20:23:13.842Z,76.79
2018-05-25T20:25:41.324Z,77.22
2018-05-25T20:28:08.812Z,77.54
2018-05-25T20:30:36.324Z,77.72
2018-05-25T20:33:03.789Z,77.48
2018-05-25T20:35:31.272Z,77.45
2018-05-25T20:37:58.739Z,77.85
2018-05-25T20:40:26.248Z,77.94
2018-05-25T20:42:53.719Z,78.01
2018-05-25T20:45:21.172Z,78.47
2018-05-25T20:47:48.663Z,78.21
2018-05-25T20:50:16.108Z,78.31
2018-05-25T20:52:43.576Z,78.11
2018-05-25T20:55:11.027Z,77.64
2018-05-25T20:57:38.651Z,77.52
2018-05-25T21:00:06.113Z,77.65
2018-05-25T21:02:33.578Z,77.78
2018-05-25T21:05:01.056Z,77.32
2018-05-25T21:07:28.533Z,77.57
2018-05-25T21:09:56.034Z,77.10
2018-05-25T21:12:23.508Z,76.68
2018-05-25T21:14:50.996Z,77.19
2018-05-25T21:17:18.447Z,77.93
2018-05-25T21:19:45.899Z,77.93
2018-05-25T21:22:13.380Z,78.50
2018-05-25T21:24:40.895Z,79.07
2018-05-25T21:27:08.383Z,78.96
2018-05-25T21:29:35.849Z,79.15
2018-05-25T21:32:03.341Z,79.41
2018-05-25T21:34:30.800Z,78.49
2018-05-25T21:36:58.268Z,79.52
2018-05-25T21:39:25.749Z,80.07
2018-05-25T21:41:53.209Z,80.77
2018-05-25T21:44:20.679Z,81.13
2018-05-25T21:46:48.153Z,80.98
2018-05-25T21:49:15.717Z,82.14
2018-05-25T21:51:43.174Z,83.44
2018-05-25T21:54:10.627Z,83.13
2018-05-25T21:56:38.126Z,82.88
2018-05-25T21:59:06.172Z,82.66
2018-05-25T22:01:33.667Z,83.07
2018-05-25T22:04:01.128Z,82.27
2018-05-25T22:06:28.891Z,82.11
2018-05-25T22:08:56.385Z,83.54
2018-05-25T22:11:23.835Z,83.61
2018-05-25T22:13:51.311Z,84.45
2018-05-25T22:16:18.789Z,83.94
2018-05-25T22:18:46.287Z,84.04
2018-05-25T22:21:13.740Z,84.78
2018-05-25T22:23:41.239Z,83.60
2018-05-25T22:26:08.696Z,84.98
2018-05-25T22:28:36.148Z,84.67
2018-05-25T22:31:03.644Z,83.98
2018-05-25T22:33:31.119Z,83.83
2018-05-25T22:35:58.605Z,84.24
2018-05-25T22:38:26.111Z,83.19
2018-05-25T22:40:53.719Z,83.81
2018-05-25T22:43:33.028Z,84.60
2018-05-25T22:46:12.275Z,84.90
2018-05-25T22:48:51.583Z,82.86
2018-05-25T22:51:31.115Z,82.97
2018-05-25T22:54:03.699Z,83.88
2018-05-25T22:56:31.171Z,83.84
2018-05-25T22:58:58.648Z,84.04
2018-05-25T23:01:26.099Z,83.08
2018-05-25T23:03:53.578Z,82.78
2018-05-25T23:06:21.040Z,83.54
2018-05-25T23:08:48.519Z,83.70
2018-05-25T23:11:15.980Z,83.88
2018-05-25T23:13:43.475Z,83.94
2018-05-25T23:16:10.927Z,84.85
2018-05-25T23:18:38.444Z,84.77
2018-05-25T23:21:05.919Z,84.60
2018-05-25T23:23:33.378Z,85.07
2018-05-25T23:26:00.855Z,85.09
2018-05-25T23:28:28.327Z,84.91
2018-05-25T23:30:56.075Z,84.85
2018-05-25T23:33:23.532Z,85.49
2018-05-25T23:35:50.989Z,85.52
2018-05-25T23:38:18.471Z,86.10
2018-05-25T23:40:45.947Z,85.44
2018-05-25T23:43:13.424Z,86.98
2018-05-25T23:45:40.900Z,85.96
2018-05-25T23:48:08.761Z,86.53
2018-05-25T23:50:36.220Z,86.06
2018-05-25T23:53:03.708Z,86.46
2018-05-25T23:55:31.191Z,86.73
2018-05-25T23:57:58.639Z,87.16
